createdAt,value
2023-03-01T00:01:51.500Z,47.51
2023-03-01T00:04:19.621Z,48.39
2023-03-01T00:06:48.375Z,48.56
2023-03-01T00:09:17.048Z,48.90
2023-03-01T00:11:46.477Z,48.22
2023-03-01T00:14:14.828Z,48.96
2023-03-01T00:16:44.785Z,48.57
2023-03-01T00:19:16.820Z,49.38
2023-03-01T00:21:45.396Z,49.08
2023-03-01T00:24:13.762Z,49.66
2023-03-01T00:26:41.874Z,48.63
2023-03-01T00:29:10.046Z,48.90
2023-03-01T00:31:38.073Z,49.33
2023-03-01T00:34:07.536Z,49.39
2023-03-01T00:36:38.786Z,48.81
2023-03-01T00:39:10.203Z,47.96
2023-03-01T00:41:38.049Z,48.25
2023-03-01T00:44:06.281Z,48.28
2023-03-01T00:46:35.381Z,49.23
2023-03-01T00:49:05.611Z,49.65
2023-03-01T00:51:34.353Z,49.49
2023-03-01T00:54:04.996Z,49.66
2023-03-01T00:56:33.458Z,49.78
2023-03-01T00:59:01.848Z,49.72
2023-03-01T01:01:32.336Z,49.11
2023-03-01T01:04:02.903Z,49.11
2023-03-01T01:06:33.005Z,48.65
2023-03-01T01:09:03.861Z,48.76
2023-03-01T01:11:32.743Z,49.45
2023-03-01T01:14:01.343Z,49.46
2023-03-01T01:16:32.066Z,49.82
2023-03-01T01:19:00.244Z,49.69
2023-03-01T01:21:32.935Z,49.57
2023-03-01T01:24:01.106Z,50.22
2023-03-01T01:26:33.463Z,49.87
2023-03-01T01:29:02.722Z,50.03
2023-03-01T01:31:31.214Z,49.08
2023-03-01T01:34:00.589Z,48.29
2023-03-01T01:36:29.340Z,48.88
2023-03-01T01:38:58.012Z,48.05
2023-03-01T01:41:26.853Z,48.58
2023-03-01T01:44:15.767Z,48.82
2023-03-01T01:46:50.378Z,48.98
2023-03-01T01:49:27.152Z,48.91
2023-03-01T01:52:02.838Z,49.48
2023-03-01T01:54:38.347Z,49.87
2023-03-01T01:57:14.126Z,50.10
2023-03-01T01:59:45.652Z,49.64
2023-03-01T02:02:14.881Z,50.27
2023-03-01T02:04:43.397Z,49.91
2023-03-01T02:07:17.093Z,50.09
2023-03-01T02:09:48.721Z,49.91
2023-03-01T02:12:19.531Z,50.23
2023-03-01T02:14:48.745Z,50.71
2023-03-01T02:17:19.093Z,50.51
2023-03-01T02:20:00.083Z,50.79
2023-03-01T02:22:31.747Z,50.92
2023-03-01T02:25:13.709Z,50.70
2023-03-01T02:27:52.553Z,51.12
2023-03-01T02:30:24.259Z,50.61
2023-03-01T02:32:55.141Z,50.99
2023-03-01T02:35:25.191Z,51.35
2023-03-01T02:37:53.530Z,50.80
2023-03-01T02:40:22.641Z,51.21
2023-03-01T02:42:56.518Z,50.58
2023-03-01T02:45:26.624Z,51.22
2023-03-01T02:47:56.910Z,50.72
2023-03-01T02:50:48.614Z,49.85
2023-03-01T02:53:23.551Z,49.65
2023-03-01T02:55:52.139Z,49.85
2023-03-01T02:58:20.478Z,50.58
2023-03-01T03:00:50.388Z,50.28
2023-03-01T03:03:21.228Z,51.22
2023-03-01T03:05:49.781Z,50.05
2023-03-01T03:08:24.873Z,49.25
2023-03-01T03:10:54.059Z,48.68
2023-03-01T03:13:29.361Z,49.52
2023-03-01T03:15:59.304Z,48.86
2023-03-01T03:18:27.741Z,48.58
2023-03-01T03:20:56.474Z,49.85
2023-03-01T03:23:24.923Z,49.27
2023-03-01T03:25:53.072Z,49.29
2023-03-01T03:28:21.259Z,48.56
2023-03-01T03:30:49.402Z,49.66
2023-03-01T03:33:19.072Z,48.83
2023-03-01T03:35:48.977Z,49.08
2023-03-01T03:38:22.000Z,48.79
2023-03-01T03:40:53.591Z,48.92
2023-03-01T03:43:23.962Z,48.94
2023-03-01T03:45:53.048Z,49.23
2023-03-01T03:48:23.088Z,48.78
2023-03-01T03:50:52.776Z,49.04
2023-03-01T03:53:21.279Z,50.20
2023-03-01T03:55:50.537Z,49.71
2023-03-01T03:58:20.741Z,50.43
2023-03-01T04:00:50.696Z,50.58
2023-03-01T04:03:21.026Z,51.06
2023-03-01T04:05:51.723Z,51.15
2023-03-01T04:08:21.712Z,51.00
2023-03-01T04:10:51.890Z,50.79
2023-03-01T04:13:21.897Z,51.16
2023-03-01T04:15:51.624Z,51.64
2023-03-01T04:18:21.885Z,51.90
2023-03-01T04:20:56.259Z,51.75
2023-03-01T04:23:24.350Z,51.66
2023-03-01T04:25:56.193Z,51.48
2023-03-01T04:28:26.471Z,51.43
2023-03-01T04:30:54.878Z,51.18
2023-03-01T04:33:23.587Z,51.42
2023-03-01T04:35:54.319Z,51.42
2023-03-01T04:38:23.175Z,51.49
2023-03-01T04:40:51.354Z,51.69
2023-03-01T04:43:19.784Z,52.15
2023-03-01T04:45:48.080Z,52.30
2023-03-01T04:48:16.239Z,52.48
2023-03-01T04:50:44.454Z,52.95
2023-03-01T04:53:15.059Z,52.99
2023-03-01T04:55:43.423Z,52.92
2023-03-01T04:58:11.313Z,53.27
2023-03-01T05:00:41.813Z,52.68
2023-03-01T05:03:11.335Z,53.29
2023-03-01T05:05:40.782Z,53.12
2023-03-01T05:08:18.249Z,53.75
2023-03-01T05:10:50.187Z,53.57
2023-03-01T05:13:22.021Z,53.50
2023-03-01T05:15:50.880Z,53.12
2023-03-01T05:18:21.825Z,53.53
2023-03-01T05:20:50.106Z,53.89
2023-03-01T05:23:18.249Z,53.48
2023-03-01T05:25:47.813Z,54.02
2023-03-01T05:28:16.088Z,53.48
2023-03-01T05:30:52.909Z,53.77
2023-03-01T05:33:22.973Z,53.57
2023-03-01T05:35:52.663Z,53.79
2023-03-01T05:38:21.355Z,53.48
2023-03-01T05:40:51.313Z,53.29
2023-03-01T05:43:19.408Z,53.72
2023-03-01T05:45:47.685Z,54.48
2023-03-01T05:48:15.942Z,54.04
2023-03-01T05:50:46.684Z,53.96
2023-03-01T05:53:17.099Z,54.88
2023-03-01T05:55:47.364Z,54.19
2023-03-01T05:58:19.009Z,54.69
2023-03-01T06:00:48.705Z,54.78
2023-03-01T06:03:19.361Z,54.59
2023-03-01T06:05:47.602Z,54.84
2023-03-01T06:08:39.090Z,54.54
2023-03-01T06:11:08.176Z,54.17
2023-03-01T06:13:37.679Z,54.20
2023-03-01T06:16:07.433Z,52.84
2023-03-01T06:18:35.569Z,52.94
2023-03-01T06:21:03.591Z,53.07
2023-03-01T06:23:31.672Z,53.01
2023-03-01T06:25:59.833Z,52.58
2023-03-01T06:28:28.124Z,53.96
2023-03-01T06:30:57.671Z,53.73
2023-03-01T06:33:25.627Z,53.47
2023-03-01T06:35:54.045Z,53.75
2023-03-01T06:38:22.081Z,54.09
2023-03-01T06:40:54.078Z,54.16
2023-03-01T06:43:22.455Z,54.30
2023-03-01T06:45:50.401Z,54.48
2023-03-01T06:48:19.663Z,54.96
2023-03-01T06:50:47.666Z,55.02
2023-03-01T06:53:15.674Z,54.17
2023-03-01T06:55:43.744Z,53.77
2023-03-01T06:58:12.737Z,54.05
2023-03-01T07:00:41.942Z,54.24
2023-03-01T07:03:10.789Z,53.34
2023-03-01T07:05:40.517Z,54.13
2023-03-01T07:08:08.601Z,54.04
2023-03-01T07:10:37.017Z,52.68
2023-03-01T07:13:05.104Z,52.91
2023-03-01T07:15:33.869Z,53.01
2023-03-01T07:18:01.821Z,52.63
2023-03-01T07:20:30.135Z,52.61
2023-03-01T07:23:09.951Z,52.70
2023-03-01T07:25:37.959Z,52.39
2023-03-01T07:28:06.400Z,52.07
2023-03-01T07:30:34.274Z,51.80
2023-03-01T07:33:02.268Z,50.97
2023-03-01T07:35:30.467Z,51.68
2023-03-01T07:37:59.656Z,51.64
2023-03-01T07:40:27.814Z,50.95
2023-03-01T07:42:59.062Z,50.54
2023-03-01T07:45:27.833Z,50.80
2023-03-01T07:47:56.552Z,49.54
2023-03-01T07:50:25.109Z,50.33
2023-03-01T07:52:52.978Z,50.81
2023-03-01T07:55:22.186Z,50.67
2023-03-01T07:57:50.438Z,49.28
2023-03-01T08:00:19.243Z,50.47
2023-03-01T08:02:54.772Z,50.69
2023-03-01T08:05:23.971Z,49.96
2023-03-01T08:07:51.854Z,50.09
2023-03-01T08:10:20.690Z,49.76
2023-03-01T08:12:49.929Z,50.08
2023-03-01T08:15:19.752Z,50.28
2023-03-01T08:17:47.811Z,50.33
2023-03-01T08:20:16.433Z,50.21
2023-03-01T08:22:45.275Z,47.67
2023-03-01T08:25:13.351Z,49.00
2023-03-01T08:27:42.495Z,48.56
2023-03-01T08:30:15.689Z,48.11
2023-03-01T08:32:43.675Z,48.66
2023-03-01T08:35:11.582Z,48.54
2023-03-01T08:37:39.483Z,46.71
2023-03-01T08:40:10.937Z,46.58
2023-03-01T08:42:39.144Z,47.82
2023-03-01T08:45:08.000Z,48.14
2023-03-01T08:47:37.385Z,46.50
2023-03-01T08:50:06.389Z,46.63
2023-03-01T08:52:35.029Z,47.27
2023-03-01T08:55:03.522Z,46.85
2023-03-01T08:57:31.969Z,47.37
2023-03-01T09:00:00.000Z,46.39
2023-03-01T09:02:28.027Z,45.77
2023-03-01T09:04:57.518Z,46.58
2023-03-01T09:07:29.080Z,45.40
2023-03-01T09:09:57.090Z,45.35
2023-03-01T09:12:25.904Z,45.54
2023-03-01T09:14:53.842Z,45.41
2023-03-01T09:17:22.566Z,44.58
2023-03-01T09:19:50.757Z,43.01
2023-03-01T09:22:20.082Z,42.84
2023-03-01T09:24:48.472Z,43.43
2023-03-01T09:27:19.603Z,42.53
2023-03-01T09:29:47.708Z,42.29
2023-03-01T09:32:15.787Z,41.59
2023-03-01T09:35:01.340Z,41.93
2023-03-01T09:37:30.688Z,40.67
2023-03-01T09:39:58.788Z,40.71
2023-03-01T09:42:27.595Z,42.05
2023-03-01T09:44:59.966Z,42.50
2023-03-01T09:47:30.333Z,41.96
2023-03-01T09:50:07.272Z,40.76
2023-03-01T09:52:42.639Z,39.75
2023-03-01T09:55:18.416Z,39.92
2023-03-01T09:57:54.998Z,39.95
2023-03-01T10:00:39.097Z,40.33
2023-03-01T10:03:17.920Z,39.72
2023-03-01T10:06:03.894Z,39.23
2023-03-01T10:08:44.416Z,39.13
2023-03-01T10:11:25.132Z,39.14
2023-03-01T10:14:00.753Z,38.32
2023-03-01T10:16:43.496Z,38.79
2023-03-01T10:19:25.293Z,38.62
2023-03-01T10:21:53.788Z,38.76
2023-03-01T10:24:23.396Z,39.39
2023-03-01T10:26:57.500Z,40.07
2023-03-01T10:29:31.903Z,39.17
2023-03-01T10:32:00.070Z,39.05
2023-03-01T10:34:31.946Z,38.82
2023-03-01T10:37:10.904Z,39.15
2023-03-01T10:39:58.058Z,38.57
2023-03-01T10:42:31.087Z,38.71
2023-03-01T10:45:00.023Z,38.03
2023-03-01T10:47:30.370Z,36.71
2023-03-01T10:50:02.587Z,37.01
2023-03-01T10:52:34.069Z,37.58
2023-03-01T10:55:11.180Z,38.84
2023-03-01T10:57:43.068Z,38.20
2023-03-01T11:00:24.447Z,37.69
2023-03-01T11:03:05.075Z,37.26
2023-03-01T11:05:34.579Z,37.57
2023-03-01T11:08:05.167Z,36.09
2023-03-01T11:10:36.292Z,36.59
2023-03-01T11:13:16.348Z,36.02
2023-03-01T11:15:45.869Z,34.99
2023-03-01T11:18:25.101Z,35.24
2023-03-01T11:21:01.754Z,35.04
2023-03-01T11:23:32.495Z,36.38
2023-03-01T11:26:06.688Z,36.92
2023-03-01T11:28:37.725Z,37.20
2023-03-01T11:31:09.797Z,36.81
2023-03-01T11:33:43.629Z,34.86
2023-03-01T11:36:28.325Z,35.51
2023-03-01T11:38:57.554Z,36.68
2023-03-01T11:41:31.193Z,36.32
2023-03-01T11:44:02.941Z,36.09
2023-03-01T11:46:57.372Z,36.14
2023-03-01T11:49:57.041Z,34.55
2023-03-01T11:52:36.170Z,34.07
2023-03-01T11:55:21.470Z,34.36
2023-03-01T11:58:05.819Z,35.00
2023-03-01T12:00:49.847Z,34.19
2023-03-01T12:03:31.718Z,34.10
2023-03-01T12:06:29.718Z,34.24
2023-03-01T12:09:17.419Z,34.76
2023-03-01T12:12:01.271Z,33.32
2023-03-01T12:14:52.627Z,33.44
2023-03-01T12:17:47.045Z,32.48
2023-03-01T12:20:25.348Z,34.09
2023-03-01T12:23:24.680Z,33.97
2023-03-01T12:26:00.689Z,33.24
2023-03-01T12:28:53.047Z,32.33
2023-03-01T12:32:15.117Z,31.68
2023-03-01T12:35:02.235Z,34.40
2023-03-01T12:37:44.654Z,33.24
2023-03-01T12:40:26.244Z,34.69
2023-03-01T12:43:03.776Z,34.48
2023-03-01T12:45:46.465Z,34.73
2023-03-01T12:48:26.193Z,33.83
2023-03-01T12:50:59.599Z,33.25
2023-03-01T12:53:31.017Z,32.96
2023-03-01T12:56:03.429Z,33.38
2023-03-01T12:58:49.316Z,32.46
2023-03-01T13:01:30.027Z,33.19
2023-03-01T13:04:12.388Z,32.35
2023-03-01T13:06:49.206Z,32.25
2023-03-01T13:09:26.032Z,32.49
2023-03-01T13:11:54.196Z,32.41
2023-03-01T13:14:39.715Z,33.46
2023-03-01T13:17:43.449Z,33.59
2023-03-01T13:20:17.058Z,32.80
2023-03-01T13:22:54.628Z,33.86
2023-03-01T13:25:27.617Z,33.24
2023-03-01T13:28:33.072Z,32.62
2023-03-01T13:31:01.555Z,32.27
2023-03-01T13:33:44.576Z,32.86
2023-03-01T13:36:43.738Z,31.70
2023-03-01T13:39:32.856Z,33.20
2023-03-01T13:42:02.164Z,32.60
2023-03-01T13:44:34.742Z,34.15
2023-03-01T13:47:15.406Z,33.37
2023-03-01T13:49:48.785Z,32.91
2023-03-01T13:52:40.836Z,33.94
2023-03-01T13:55:21.595Z,33.67
2023-03-01T13:57:54.808Z,33.21
2023-03-01T14:00:34.011Z,32.18
2023-03-01T14:03:06.390Z,33.70
2023-03-01T14:05:37.251Z,33.46
2023-03-01T14:08:05.581Z,32.85
2023-03-01T14:10:43.463Z,33.22
2023-03-01T14:13:30.370Z,34.28
2023-03-01T14:16:14.762Z,32.95
2023-03-01T14:18:54.656Z,32.96
2023-03-01T14:21:26.536Z,32.72
2023-03-01T14:23:55.156Z,33.36
2023-03-01T14:26:24.422Z,32.77
2023-03-01T14:28:53.344Z,32.29
2023-03-01T14:31:52.149Z,31.31
2023-03-01T14:34:23.655Z,31.65
2023-03-01T14:36:53.025Z,31.16
2023-03-01T14:39:26.711Z,31.14
2023-03-01T14:41:56.236Z,32.04
2023-03-01T14:44:25.889Z,31.81
2023-03-01T14:46:57.054Z,31.53
2023-03-01T14:49:28.150Z,31.94
2023-03-01T14:52:01.817Z,31.13
2023-03-01T14:54:37.449Z,31.03
2023-03-01T14:57:05.588Z,30.25
2023-03-01T14:59:36.402Z,29.49
2023-03-01T15:02:04.865Z,30.62
2023-03-01T15:04:36.304Z,30.78
2023-03-01T15:07:06.852Z,30.58
2023-03-01T15:09:38.633Z,30.54
2023-03-01T15:12:36.272Z,30.68
2023-03-01T15:15:23.589Z,29.86
2023-03-01T15:17:57.268Z,29.93
2023-03-01T15:20:28.537Z,30.49
2023-03-01T15:22:59.064Z,30.53
2023-03-01T15:25:29.553Z,29.92
2023-03-01T15:27:59.710Z,29.75
2023-03-01T15:30:36.001Z,29.79
2023-03-01T15:33:22.790Z,29.43
2023-03-01T15:35:54.800Z,30.00
2023-03-01T15:38:55.336Z,29.83
2023-03-01T15:41:28.663Z,30.20
2023-03-01T15:43:57.450Z,30.21
2023-03-01T15:46:33.487Z,30.16
2023-03-01T15:49:04.875Z,29.55
2023-03-01T15:51:35.940Z,29.54
2023-03-01T15:54:08.972Z,30.20
2023-03-01T15:56:36.988Z,30.41
2023-03-01T15:59:07.598Z,30.62
2023-03-01T16:01:36.528Z,30.68
2023-03-01T16:04:05.706Z,30.80
2023-03-01T16:06:34.485Z,30.23
2023-03-01T16:09:03.759Z,28.91
2023-03-01T16:11:33.608Z,28.97
2023-03-01T16:14:01.741Z,28.29
2023-03-01T16:16:30.013Z,28.61
2023-03-01T16:18:58.775Z,29.24
2023-03-01T16:21:27.153Z,28.15
2023-03-01T16:23:55.392Z,28.29
2023-03-01T16:26:23.257Z,29.35
2023-03-01T16:28:58.920Z,29.36
2023-03-01T16:31:30.072Z,29.14
2023-03-01T16:34:00.738Z,30.38
2023-03-01T16:36:31.218Z,31.07
2023-03-01T16:39:01.624Z,30.55
2023-03-01T16:41:30.598Z,31.32
2023-03-01T16:44:00.116Z,31.56
2023-03-01T16:46:29.890Z,31.60
2023-03-01T16:48:58.554Z,33.11
2023-03-01T16:51:26.712Z,32.96
2023-03-01T16:53:55.217Z,33.26
2023-03-01T16:56:23.167Z,33.90
2023-03-01T16:58:51.110Z,33.39
2023-03-01T17:01:24.384Z,33.90
2023-03-01T17:03:52.621Z,34.00
2023-03-01T17:06:23.145Z,33.73
2023-03-01T17:08:51.060Z,34.59
2023-03-01T17:11:21.326Z,33.57
2023-03-01T17:13:49.606Z,34.28
2023-03-01T17:16:21.377Z,33.26
2023-03-01T17:18:50.316Z,33.84
2023-03-01T17:21:18.618Z,33.81
2023-03-01T17:23:48.040Z,34.74
2023-03-01T17:26:15.906Z,34.00
2023-03-01T17:28:44.425Z,34.90
2023-03-01T17:31:13.163Z,35.33
2023-03-01T17:33:42.465Z,34.92
2023-03-01T17:36:10.326Z,35.42
2023-03-01T17:38:38.171Z,34.90
2023-03-01T17:41:06.504Z,34.56
2023-03-01T17:43:35.460Z,35.27
2023-03-01T17:46:03.520Z,34.93
2023-03-01T17:48:31.582Z,34.78
2023-03-01T17:51:01.029Z,35.03
2023-03-01T17:53:28.981Z,35.49
2023-03-01T17:56:02.491Z,35.73
2023-03-01T17:58:31.130Z,35.79
2023-03-01T18:01:08.702Z,35.74
2023-03-01T18:03:36.783Z,35.86
2023-03-01T18:06:12.019Z,35.96
2023-03-01T18:08:39.926Z,35.52
2023-03-01T18:11:08.927Z,35.56
2023-03-01T18:13:37.538Z,36.41
2023-03-01T18:16:09.461Z,35.83
2023-03-01T18:18:38.522Z,37.26
2023-03-01T18:21:09.655Z,36.98
2023-03-01T18:23:39.118Z,37.89
2023-03-01T18:26:09.016Z,37.62
2023-03-01T18:28:37.611Z,37.21
2023-03-01T18:31:08.836Z,37.59
2023-03-01T18:33:37.595Z,38.04
2023-03-01T18:36:17.304Z,37.81
2023-03-01T18:38:45.580Z,38.34
2023-03-01T18:41:13.669Z,38.32
2023-03-01T18:43:41.842Z,37.72
2023-03-01T18:46:10.084Z,38.40
2023-03-01T18:48:40.442Z,38.67
2023-03-01T18:51:14.295Z,38.58
2023-03-01T18:53:42.478Z,38.23
2023-03-01T18:56:11.237Z,38.77
2023-03-01T18:58:39.531Z,39.88
2023-03-01T19:01:13.398Z,39.17
2023-03-01T19:03:41.523Z,39.34
2023-03-01T19:06:11.256Z,39.29
2023-03-01T19:08:40.789Z,39.64
2023-03-01T19:11:09.733Z,39.13
2023-03-01T19:13:40.490Z,38.45
2023-03-01T19:16:11.660Z,38.82
2023-03-01T19:18:42.634Z,39.05
2023-03-01T19:21:16.520Z,38.42
2023-03-01T19:23:44.832Z,38.85
2023-03-01T19:26:17.470Z,38.16
2023-03-01T19:28:46.734Z,38.39
2023-03-01T19:31:19.237Z,38.31
2023-03-01T19:33:51.366Z,37.76
2023-03-01T19:36:22.514Z,37.77
2023-03-01T19:38:50.415Z,37.83
2023-03-01T19:41:21.661Z,38.70
2023-03-01T19:43:49.582Z,38.04
2023-03-01T19:46:17.517Z,37.99
2023-03-01T19:48:45.592Z,37.85
2023-03-01T19:51:13.674Z,38.42
2023-03-01T19:53:42.938Z,37.79
2023-03-01T19:56:11.183Z,38.05
2023-03-01T19:58:40.106Z,38.44
2023-03-01T20:01:16.761Z,37.76
2023-03-01T20:03:45.877Z,38.62
2023-03-01T20:06:17.073Z,38.49
2023-03-01T20:08:46.322Z,38.73
2023-03-01T20:11:16.388Z,38.91
2023-03-01T20:13:44.916Z,38.98
2023-03-01T20:16:16.600Z,38.25
2023-03-01T20:18:44.910Z,38.46
2023-03-01T20:21:23.645Z,38.79
2023-03-01T20:23:53.793Z,38.91
2023-03-01T20:26:23.137Z,38.94
2023-03-01T20:28:52.828Z,38.61
2023-03-01T20:31:22.508Z,38.32
2023-03-01T20:33:50.617Z,38.91
2023-03-01T20:36:19.448Z,38.04
2023-03-01T20:38:47.357Z,37.98
2023-03-01T20:41:16.568Z,38.36
2023-03-01T20:43:44.634Z,38.41
2023-03-01T20:46:14.876Z,37.78
2023-03-01T20:48:43.449Z,38.96
2023-03-01T20:51:12.814Z,39.34
2023-03-01T20:53:41.200Z,39.32
2023-03-01T20:56:11.165Z,39.45
2023-03-01T20:58:41.143Z,39.72
2023-03-01T21:01:10.421Z,39.50
2023-03-01T21:03:38.371Z,39.12
2023-03-01T21:06:07.193Z,39.20
2023-03-01T21:08:35.474Z,39.35
2023-03-01T21:11:06.267Z,39.16
2023-03-01T21:13:35.246Z,39.42
2023-03-01T21:16:07.827Z,39.12
2023-03-01T21:18:36.995Z,38.92
2023-03-01T21:21:06.817Z,39.17
2023-03-01T21:23:36.396Z,38.88
2023-03-01T21:26:05.847Z,39.06
2023-03-01T21:28:34.600Z,39.71
2023-03-01T21:31:08.839Z,39.84
2023-03-01T21:33:37.366Z,40.00
2023-03-01T21:36:08.278Z,40.55
2023-03-01T21:38:38.584Z,40.09
2023-03-01T21:41:08.529Z,40.17
2023-03-01T21:43:37.315Z,40.61
2023-03-01T21:46:08.986Z,40.02
2023-03-01T21:48:38.249Z,40.07
2023-03-01T21:51:07.616Z,40.06
2023-03-01T21:53:38.051Z,40.03
2023-03-01T21:56:07.176Z,40.42
2023-03-01T21:58:35.133Z,40.69
2023-03-01T22:01:10.258Z,41.05
2023-03-01T22:03:45.078Z,40.94
2023-03-01T22:06:19.213Z,41.07
2023-03-01T22:08:48.765Z,41.42
2023-03-01T22:11:18.982Z,40.61
2023-03-01T22:13:49.281Z,40.74
2023-03-01T22:16:19.357Z,41.28
2023-03-01T22:18:48.252Z,40.41
2023-03-01T22:21:16.543Z,40.16
2023-03-01T22:23:45.173Z,40.37
2023-03-01T22:26:23.475Z,40.07
2023-03-01T22:28:51.575Z,40.28
2023-03-01T22:31:21.029Z,40.38
2023-03-01T22:33:49.126Z,40.58
2023-03-01T22:36:17.096Z,40.95
2023-03-01T22:38:45.283Z,40.61
2023-03-01T22:41:13.455Z,40.11
2023-03-01T22:43:41.434Z,40.01
2023-03-01T22:46:14.089Z,40.10
2023-03-01T22:48:43.528Z,40.04
2023-03-01T22:51:15.643Z,39.60
2023-03-01T22:53:44.153Z,40.19
2023-03-01T22:56:14.592Z,40.42
2023-03-01T22:58:43.124Z,40.36
2023-03-01T23:01:16.376Z,41.09
2023-03-01T23:03:46.187Z,41.78
2023-03-01T23:06:15.222Z,42.21
2023-03-01T23:08:43.867Z,42.75
2023-03-01T23:11:13.823Z,42.68
2023-03-01T23:13:42.201Z,42.08
2023-03-01T23:16:11.622Z,41.92
2023-03-01T23:18:40.030Z,41.87
2023-03-01T23:21:14.276Z,42.54
2023-03-01T23:23:43.418Z,42.44
2023-03-01T23:26:11.672Z,43.14
2023-03-01T23:28:40.979Z,42.76
2023-03-01T23:31:11.690Z,43.15
2023-03-01T23:33:39.528Z,44.25
2023-03-01T23:36:07.918Z,44.48
2023-03-01T23:38:37.104Z,45.00
2023-03-01T23:41:05.213Z,44.75
2023-03-01T23:43:33.720Z,43.86
2023-03-01T23:46:01.485Z,44.17
2023-03-01T23:48:29.323Z,44.68
2023-03-01T23:50:57.224Z,44.79
2023-03-01T23:53:25.163Z,44.47
2023-03-01T23:55:55.313Z,44.91
2023-03-01T23:58:28.592Z,44.63
